sensor_id;sensor_type;location;lat;lon;timestamp;P1;durP1;ratioP1;P2;durP2;ratioP2
35294;SDS011;21413;48.032;7.764;2023-04-03T00:00:35;4.23;;;3.73;;
35294;SDS011;21413;48.032;7.764;2023-04-03T00:03:01;3.60;;;3.40;;
35294;SDS011;21413;48.032;7.764;2023-04-03T00:05:27;4.03;;;3.57;;
35294;SDS011;21413;48.032;7.764;2023-04-03T00:07:53;4.00;;;3.70;;
35294;SDS011;21413;48.032;7.764;2023-04-03T00:10:19;3.33;;;3.13;;
35294;SDS011;21413;48.032;7.764;2023-04-03T00:12:45;4.17;;;3.97;;
35294;SDS011;21413;48.032;7.764;2023-04-03T00:15:13;4.43;;;3.70;;
35294;SDS011;21413;48.032;7.764;2023-04-03T00:17:40;3.90;;;3.60;;
35294;SDS011;21413;48.032;7.764;2023-04-03T00:20:06;3.70;;;3.60;;
35294;SDS011;21413;48.032;7.764;2023-04-03T00:22:32;3.77;;;3.57;;
35294;SDS011;21413;48.032;7.764;2023-04-03T00:24:58;4.33;;;4.13;;
35294;SDS011;21413;48.032;7.764;2023-04-03T00:27:24;4.07;;;3.77;;
35294;SDS011;21413;48.032;7.764;2023-04-03T00:29:53;3.60;;;3.50;;
35294;SDS011;21413;48.032;7.764;2023-04-03T00:32:21;3.73;;;3.63;;
35294;SDS011;21413;48.032;7.764;2023-04-03T00:34:47;3.47;;;3.30;;
35294;SDS011;21413;48.032;7.764;2023-04-03T00:37:13;3.73;;;3.63;;
35294;SDS011;21413;48.032;7.764;2023-04-03T00:39:39;3.47;;;3.33;;
35294;SDS011;21413;48.032;7.764;2023-04-03T00:42:06;3.93;;;3.63;;
35294;SDS011;21413;48.032;7.764;2023-04-03T00:47:01;4.27;;;4.07;;
35294;SDS011;21413;48.032;7.764;2023-04-03T00:49:29;3.60;;;3.40;;
35294;SDS011;21413;48.032;7.764;2023-04-03T00:51:55;3.47;;;3.37;;
35294;SDS011;21413;48.032;7.764;2023-04-03T00:54:21;3.37;;;3.17;;
35294;SDS011;21413;48.032;7.764;2023-04-03T00:56:47;3.23;;;3.13;;
35294;SDS011;21413;48.032;7.764;2023-04-03T00:59:19;3.63;;;3.40;;
35294;SDS011;21413;48.032;7.764;2023-04-03T01:01:48;7.30;;;3.53;;
35294;SDS011;21413;48.032;7.764;2023-04-03T01:06:56;3.57;;;3.47;;
35294;SDS011;21413;48.032;7.764;2023-04-03T01:09:23;3.43;;;3.10;;
35294;SDS011;21413;48.032;7.764;2023-04-03T01:11:49;3.30;;;3.30;;
35294;SDS011;21413;48.032;7.764;2023-04-03T01:14:15;3.90;;;3.67;;
35294;SDS011;21413;48.032;7.764;2023-04-03T01:16:41;3.57;;;3.47;;
35294;SDS011;21413;48.032;7.764;2023-04-03T01:19:08;3.37;;;3.27;;
35294;SDS011;21413;48.032;7.764;2023-04-03T01:26:43;2.93;;;2.83;;
35294;SDS011;21413;48.032;7.764;2023-04-03T01:29:09;3.90;;;3.07;;
35294;SDS011;21413;48.032;7.764;2023-04-03T01:34:14;3.70;;;3.60;;
35294;SDS011;21413;48.032;7.764;2023-04-03T01:36:40;3.30;;;3.30;;
35294;SDS011;21413;48.032;7.764;2023-04-03T01:39:06;3.57;;;3.37;;
35294;SDS011;21413;48.032;7.764;2023-04-03T01:41:32;3.20;;;3.10;;
35294;SDS011;21413;48.032;7.764;2023-04-03T01:43:58;3.83;;;3.70;;
35294;SDS011;21413;48.032;7.764;2023-04-03T01:46:24;3.20;;;3.10;;
35294;SDS011;21413;48.032;7.764;2023-04-03T01:48:50;3.80;;;3.57;;
35294;SDS011;21413;48.032;7.764;2023-04-03T01:51:16;4.20;;;3.37;;
35294;SDS011;21413;48.032;7.764;2023-04-03T01:53:42;3.07;;;3.00;;
35294;SDS011;21413;48.032;7.764;2023-04-03T01:56:08;2.87;;;2.77;;
35294;SDS011;21413;48.032;7.764;2023-04-03T01:58:34;3.30;;;3.20;;
35294;SDS011;21413;48.032;7.764;2023-04-03T02:01:00;3.40;;;3.20;;
35294;SDS011;21413;48.032;7.764;2023-04-03T02:03:27;4.57;;;3.57;;
35294;SDS011;21413;48.032;7.764;2023-04-03T02:05:53;3.40;;;3.40;;
35294;SDS011;21413;48.032;7.764;2023-04-03T02:08:19;3.53;;;3.43;;
35294;SDS011;21413;48.032;7.764;2023-04-03T02:10:48;3.70;;;3.60;;
35294;SDS011;21413;48.032;7.764;2023-04-03T02:13:15;3.93;;;3.63;;
35294;SDS011;21413;48.032;7.764;2023-04-03T02:15:41;4.57;;;4.30;;
35294;SDS011;21413;48.032;7.764;2023-04-03T02:18:07;4.00;;;3.80;;
35294;SDS011;21413;48.032;7.764;2023-04-03T02:20:34;3.57;;;3.27;;
35294;SDS011;21413;48.032;7.764;2023-04-03T02:23:00;4.17;;;3.97;;
35294;SDS011;21413;48.032;7.764;2023-04-03T02:25:29;3.73;;;3.53;;
35294;SDS011;21413;48.032;7.764;2023-04-03T02:27:55;4.27;;;3.30;;
35294;SDS011;21413;48.032;7.764;2023-04-03T02:30:21;3.73;;;3.63;;
35294;SDS011;21413;48.032;7.764;2023-04-03T02:32:50;3.83;;;3.73;;
35294;SDS011;21413;48.032;7.764;2023-04-03T02:35:16;4.63;;;4.33;;
35294;SDS011;21413;48.032;7.764;2023-04-03T02:37:45;6.90;;;4.07;;
35294;SDS011;21413;48.032;7.764;2023-04-03T02:40:11;4.33;;;3.97;;
35294;SDS011;21413;48.032;7.764;2023-04-03T02:42:37;3.50;;;3.30;;
35294;SDS011;21413;48.032;7.764;2023-04-03T02:45:03;3.40;;;3.30;;
35294;SDS011;21413;48.032;7.764;2023-04-03T02:47:29;3.87;;;3.53;;
35294;SDS011;21413;48.032;7.764;2023-04-03T02:49:55;4.20;;;3.57;;
35294;SDS011;21413;48.032;7.764;2023-04-03T02:52:21;3.77;;;3.60;;
35294;SDS011;21413;48.032;7.764;2023-04-03T02:54:47;3.23;;;3.13;;
35294;SDS011;21413;48.032;7.764;2023-04-03T02:57:13;3.80;;;3.60;;
35294;SDS011;21413;48.032;7.764;2023-04-03T02:59:39;3.90;;;3.70;;
35294;SDS011;21413;48.032;7.764;2023-04-03T03:02:06;3.40;;;3.20;;
35294;SDS011;21413;48.032;7.764;2023-04-03T03:04:32;3.93;;;3.73;;
35294;SDS011;21413;48.032;7.764;2023-04-03T03:06:58;3.57;;;3.37;;
35294;SDS011;21413;48.032;7.764;2023-04-03T03:09:24;3.90;;;3.70;;
35294;SDS011;21413;48.032;7.764;2023-04-03T03:11:51;5.30;;;3.37;;
35294;SDS011;21413;48.032;7.764;2023-04-03T03:14:17;3.27;;;3.07;;
35294;SDS011;21413;48.032;7.764;2023-04-03T03:16:43;3.50;;;3.10;;
35294;SDS011;21413;48.032;7.764;2023-04-03T03:19:10;4.27;;;3.87;;
35294;SDS011;21413;48.032;7.764;2023-04-03T03:21:36;3.63;;;3.33;;
35294;SDS011;21413;48.032;7.764;2023-04-03T03:24:02;3.90;;;3.60;;
35294;SDS011;21413;48.032;7.764;2023-04-03T03:26:28;3.00;;;2.90;;
35294;SDS011;21413;48.032;7.764;2023-04-03T03:28:54;3.50;;;3.23;;
35294;SDS011;21413;48.032;7.764;2023-04-03T03:31:20;4.67;;;3.83;;
35294;SDS011;21413;48.032;7.764;2023-04-03T03:33:46;3.30;;;3.20;;
35294;SDS011;21413;48.032;7.764;2023-04-03T03:36:12;2.90;;;2.90;;
35294;SDS011;21413;48.032;7.764;2023-04-03T03:38:38;3.50;;;3.40;;
35294;SDS011;21413;48.032;7.764;2023-04-03T03:41:04;3.53;;;3.33;;
35294;SDS011;21413;48.032;7.764;2023-04-03T03:43:31;3.13;;;3.13;;
35294;SDS011;21413;48.032;7.764;2023-04-03T03:45:59;3.90;;;3.17;;
35294;SDS011;21413;48.032;7.764;2023-04-03T03:48:25;3.43;;;3.30;;
35294;SDS011;21413;48.032;7.764;2023-04-03T03:50:51;3.27;;;3.07;;
35294;SDS011;21413;48.032;7.764;2023-04-03T03:53:17;3.00;;;2.90;;
35294;SDS011;21413;48.032;7.764;2023-04-03T03:55:44;4.53;;;3.37;;
35294;SDS011;21413;48.032;7.764;2023-04-03T03:58:10;3.57;;;3.47;;
35294;SDS011;21413;48.032;7.764;2023-04-03T04:00:38;3.57;;;3.47;;
35294;SDS011;21413;48.032;7.764;2023-04-03T04:03:04;3.13;;;3.03;;
35294;SDS011;21413;48.032;7.764;2023-04-03T04:05:32;3.43;;;3.33;;
35294;SDS011;21413;48.032;7.764;2023-04-03T04:07:58;3.97;;;3.77;;
35294;SDS011;21413;48.032;7.764;2023-04-03T04:10:24;4.10;;;3.80;;
35294;SDS011;21413;48.032;7.764;2023-04-03T04:12:50;5.67;;;5.27;;
35294;SDS011;21413;48.032;7.764;2023-04-03T04:15:16;9.73;;;6.50;;
35294;SDS011;21413;48.032;7.764;2023-04-03T04:17:43;3.93;;;3.77;;
35294;SDS011;21413;48.032;7.764;2023-04-03T04:20:09;3.33;;;3.27;;
35294;SDS011;21413;48.032;7.764;2023-04-03T04:22:35;3.60;;;3.40;;
35294;SDS011;21413;48.032;7.764;2023-04-03T04:25:02;4.20;;;4.00;;
35294;SDS011;21413;48.032;7.764;2023-04-03T04:27:31;3.77;;;3.67;;
35294;SDS011;21413;48.032;7.764;2023-04-03T04:29:57;3.30;;;3.20;;
35294;SDS011;21413;48.032;7.764;2023-04-03T04:32:23;3.53;;;3.43;;
35294;SDS011;21413;48.032;7.764;2023-04-03T04:34:49;3.63;;;3.47;;
35294;SDS011;21413;48.032;7.764;2023-04-03T04:37:17;4.10;;;4.00;;
35294;SDS011;21413;48.032;7.764;2023-04-03T04:39:43;3.37;;;3.27;;
35294;SDS011;21413;48.032;7.764;2023-04-03T04:42:09;3.60;;;3.30;;
35294;SDS011;21413;48.032;7.764;2023-04-03T04:44:37;3.83;;;3.47;;
35294;SDS011;21413;48.032;7.764;2023-04-03T04:47:04;4.50;;;4.20;;
35294;SDS011;21413;48.032;7.764;2023-04-03T04:49:30;4.57;;;4.20;;
35294;SDS011;21413;48.032;7.764;2023-04-03T04:51:58;3.33;;;3.23;;
35294;SDS011;21413;48.032;7.764;2023-04-03T04:54:24;15.70;;;9.33;;
35294;SDS011;21413;48.032;7.764;2023-04-03T04:56:50;4.70;;;4.37;;
35294;SDS011;21413;48.032;7.764;2023-04-03T04:59:16;3.90;;;3.60;;
35294;SDS011;21413;48.032;7.764;2023-04-03T05:01:42;4.33;;;4.03;;
35294;SDS011;21413;48.032;7.764;2023-04-03T05:04:08;4.00;;;3.70;;
35294;SDS011;21413;48.032;7.764;2023-04-03T05:06:36;4.30;;;4.10;;
35294;SDS011;21413;48.032;7.764;2023-04-03T05:09:02;4.00;;;3.80;;
35294;SDS011;21413;48.032;7.764;2023-04-03T05:11:32;3.70;;;3.60;;
35294;SDS011;21413;48.032;7.764;2023-04-03T05:13:57;3.60;;;3.50;;
35294;SDS011;21413;48.032;7.764;2023-04-03T05:16:24;4.07;;;3.87;;
35294;SDS011;21413;48.032;7.764;2023-04-03T05:18:50;5.83;;;3.80;;
35294;SDS011;21413;48.032;7.764;2023-04-03T05:21:16;4.20;;;4.00;;
35294;SDS011;21413;48.032;7.764;2023-04-03T05:23:43;4.00;;;3.80;;
35294;SDS011;21413;48.032;7.764;2023-04-03T05:26:09;3.60;;;3.50;;
35294;SDS011;21413;48.032;7.764;2023-04-03T05:28:35;5.03;;;3.97;;
35294;SDS011;21413;48.032;7.764;2023-04-03T05:31:01;4.10;;;4.00;;
35294;SDS011;21413;48.032;7.764;2023-04-03T05:33:27;3.87;;;3.73;;
35294;SDS011;21413;48.032;7.764;2023-04-03T05:35:54;4.37;;;4.17;;
35294;SDS011;21413;48.032;7.764;2023-04-03T05:38:20;4.50;;;4.20;;
35294;SDS011;21413;48.032;7.764;2023-04-03T05:40:46;4.33;;;4.10;;
35294;SDS011;21413;48.032;7.764;2023-04-03T05:43:12;4.27;;;4.07;;
35294;SDS011;21413;48.032;7.764;2023-04-03T05:45:38;3.47;;;3.30;;
35294;SDS011;21413;48.032;7.764;2023-04-03T05:48:04;4.37;;;4.27;;
35294;SDS011;21413;48.032;7.764;2023-04-03T05:50:32;5.40;;;4.30;;
35294;SDS011;21413;48.032;7.764;2023-04-03T05:53:06;5.20;;;4.90;;
35294;SDS011;21413;48.032;7.764;2023-04-03T05:55:32;6.40;;;5.80;;
35294;SDS011;21413;48.032;7.764;2023-04-03T05:57:58;5.13;;;4.73;;
35294;SDS011;21413;48.032;7.764;2023-04-03T06:00:24;4.90;;;4.70;;
35294;SDS011;21413;48.032;7.764;2023-04-03T06:02:50;4.23;;;4.13;;
35294;SDS011;21413;48.032;7.764;2023-04-03T06:05:16;4.83;;;4.53;;
35294;SDS011;21413;48.032;7.764;2023-04-03T06:07:42;4.77;;;4.57;;
35294;SDS011;21413;48.032;7.764;2023-04-03T06:10:10;4.70;;;4.50;;
35294;SDS011;21413;48.032;7.764;2023-04-03T06:12:36;6.50;;;5.80;;
35294;SDS011;21413;48.032;7.764;2023-04-03T06:15:02;5.33;;;4.83;;
35294;SDS011;21413;48.032;7.764;2023-04-03T06:17:28;4.30;;;4.20;;
35294;SDS011;21413;48.032;7.764;2023-04-03T06:19:55;5.97;;;5.47;;
35294;SDS011;21413;48.032;7.764;2023-04-03T06:22:23;6.20;;;5.80;;
35294;SDS011;21413;48.032;7.764;2023-04-03T06:24:50;5.40;;;5.00;;
35294;SDS011;21413;48.032;7.764;2023-04-03T06:27:16;10.40;;;6.20;;
35294;SDS011;21413;48.032;7.764;2023-04-03T06:29:47;4.57;;;4.47;;
35294;SDS011;21413;48.032;7.764;2023-04-03T06:32:16;5.90;;;5.47;;
35294;SDS011;21413;48.032;7.764;2023-04-03T06:34:42;6.20;;;5.60;;
35294;SDS011;21413;48.032;7.764;2023-04-03T06:37:18;7.17;;;6.60;;
35294;SDS011;21413;48.032;7.764;2023-04-03T06:39:44;8.77;;;4.67;;
35294;SDS011;21413;48.032;7.764;2023-04-03T06:42:10;5.43;;;5.13;;
35294;SDS011;21413;48.032;7.764;2023-04-03T06:44:36;5.73;;;5.33;;
35294;SDS011;21413;48.032;7.764;2023-04-03T06:47:02;4.83;;;4.60;;
35294;SDS011;21413;48.032;7.764;2023-04-03T06:49:28;6.00;;;5.60;;
35294;SDS011;21413;48.032;7.764;2023-04-03T06:51:55;5.30;;;4.90;;
35294;SDS011;21413;48.032;7.764;2023-04-03T06:54:21;4.67;;;4.47;;
35294;SDS011;21413;48.032;7.764;2023-04-03T06:56:47;5.70;;;5.40;;
35294;SDS011;21413;48.032;7.764;2023-04-03T06:59:13;5.50;;;5.00;;
35294;SDS011;21413;48.032;7.764;2023-04-03T07:01:40;4.40;;;4.30;;
35294;SDS011;21413;48.032;7.764;2023-04-03T07:04:08;4.73;;;4.43;;
35294;SDS011;21413;48.032;7.764;2023-04-03T07:06:34;4.03;;;3.93;;
35294;SDS011;21413;48.032;7.764;2023-04-03T07:09:01;4.40;;;4.27;;
35294;SDS011;21413;48.032;7.764;2023-04-03T07:11:27;4.63;;;4.43;;
35294;SDS011;21413;48.032;7.764;2023-04-03T07:13:53;5.03;;;4.50;;
35294;SDS011;21413;48.032;7.764;2023-04-03T07:16:22;4.23;;;4.03;;
35294;SDS011;21413;48.032;7.764;2023-04-03T07:18:48;3.87;;;3.70;;
35294;SDS011;21413;48.032;7.764;2023-04-03T07:21:14;4.30;;;4.17;;
35294;SDS011;21413;48.032;7.764;2023-04-03T07:23:40;3.80;;;3.70;;
35294;SDS011;21413;48.032;7.764;2023-04-03T07:26:06;3.70;;;3.60;;
35294;SDS011;21413;48.032;7.764;2023-04-03T07:28:35;3.07;;;2.97;;
35294;SDS011;21413;48.032;7.764;2023-04-03T07:31:06;3.30;;;3.20;;
35294;SDS011;21413;48.032;7.764;2023-04-03T07:33:33;3.80;;;3.70;;
35294;SDS011;21413;48.032;7.764;2023-04-03T07:36:00;3.13;;;3.03;;
35294;SDS011;21413;48.032;7.764;2023-04-03T07:38:27;3.40;;;3.20;;
35294;SDS011;21413;48.032;7.764;2023-04-03T07:40:53;3.07;;;2.97;;
35294;SDS011;21413;48.032;7.764;2023-04-03T07:43:20;2.97;;;2.97;;
35294;SDS011;21413;48.032;7.764;2023-04-03T07:45:46;2.70;;;2.70;;
35294;SDS011;21413;48.032;7.764;2023-04-03T07:48:15;3.10;;;3.00;;
35294;SDS011;21413;48.032;7.764;2023-04-03T07:50:43;2.90;;;2.80;;
35294;SDS011;21413;48.032;7.764;2023-04-03T07:53:10;2.20;;;2.20;;
35294;SDS011;21413;48.032;7.764;2023-04-03T07:55:38;2.20;;;2.20;;
35294;SDS011;21413;48.032;7.764;2023-04-03T07:58:11;2.57;;;2.40;;
35294;SDS011;21413;48.032;7.764;2023-04-03T08:00:37;2.33;;;2.27;;
35294;SDS011;21413;48.032;7.764;2023-04-03T08:03:04;2.30;;;2.23;;
35294;SDS011;21413;48.032;7.764;2023-04-03T08:05:31;2.20;;;2.10;;
35294;SDS011;21413;48.032;7.764;2023-04-03T08:07:57;2.40;;;2.40;;
35294;SDS011;21413;48.032;7.764;2023-04-03T08:10:23;2.43;;;2.43;;
35294;SDS011;21413;48.032;7.764;2023-04-03T08:12:49;2.43;;;2.43;;
35294;SDS011;21413;48.032;7.764;2023-04-03T08:15:18;2.40;;;2.40;;
35294;SDS011;21413;48.032;7.764;2023-04-03T08:17:44;2.57;;;2.57;;
35294;SDS011;21413;48.032;7.764;2023-04-03T08:20:10;2.30;;;2.30;;
35294;SDS011;21413;48.032;7.764;2023-04-03T08:22:36;2.90;;;2.43;;
35294;SDS011;21413;48.032;7.764;2023-04-03T08:25:02;2.43;;;2.43;;
35294;SDS011;21413;48.032;7.764;2023-04-03T08:27:28;2.97;;;2.87;;
35294;SDS011;21413;48.032;7.764;2023-04-03T08:29:55;2.83;;;2.83;;
35294;SDS011;21413;48.032;7.764;2023-04-03T08:32:24;3.10;;;3.00;;
35294;SDS011;21413;48.032;7.764;2023-04-03T08:34:50;4.97;;;3.30;;
35294;SDS011;21413;48.032;7.764;2023-04-03T08:37:16;3.00;;;2.80;;
35294;SDS011;21413;48.032;7.764;2023-04-03T08:39:42;3.00;;;2.90;;
35294;SDS011;21413;48.032;7.764;2023-04-03T08:42:16;3.20;;;3.00;;
35294;SDS011;21413;48.032;7.764;2023-04-03T08:44:59;3.13;;;3.03;;
35294;SDS011;21413;48.032;7.764;2023-04-03T08:50:02;2.60;;;2.50;;
35294;SDS011;21413;48.032;7.764;2023-04-03T08:52:36;2.77;;;2.77;;
35294;SDS011;21413;48.032;7.764;2023-04-03T08:55:05;3.53;;;3.33;;
35294;SDS011;21413;48.032;7.764;2023-04-03T08:57:41;2.83;;;2.73;;
35294;SDS011;21413;48.032;7.764;2023-04-03T09:02:42;3.03;;;2.93;;
35294;SDS011;21413;48.032;7.764;2023-04-03T09:05:11;2.90;;;2.80;;
35294;SDS011;21413;48.032;7.764;2023-04-03T09:07:44;3.27;;;3.17;;
35294;SDS011;21413;48.032;7.764;2023-04-03T09:10:13;3.03;;;2.93;;
35294;SDS011;21413;48.032;7.764;2023-04-03T09:12:39;3.60;;;3.30;;
35294;SDS011;21413;48.032;7.764;2023-04-03T09:15:23;3.13;;;3.13;;
35294;SDS011;21413;48.032;7.764;2023-04-03T09:20:21;5.80;;;2.73;;
35294;SDS011;21413;48.032;7.764;2023-04-03T09:22:51;2.80;;;2.80;;
35294;SDS011;21413;48.032;7.764;2023-04-03T09:27:51;5.43;;;5.07;;
35294;SDS011;21413;48.032;7.764;2023-04-03T09:30:18;3.50;;;3.40;;
35294;SDS011;21413;48.032;7.764;2023-04-03T09:32:45;3.30;;;3.20;;
35294;SDS011;21413;48.032;7.764;2023-04-03T09:40:36;2.73;;;2.73;;
35294;SDS011;21413;48.032;7.764;2023-04-03T09:45:48;2.87;;;2.87;;
35294;SDS011;21413;48.032;7.764;2023-04-03T09:48:16;2.90;;;2.80;;
35294;SDS011;21413;48.032;7.764;2023-04-03T09:53:37;2.40;;;2.30;;
35294;SDS011;21413;48.032;7.764;2023-04-03T09:58:50;2.70;;;2.70;;
35294;SDS011;21413;48.032;7.764;2023-04-03T10:03:46;1.80;;;1.80;;
35294;SDS011;21413;48.032;7.764;2023-04-03T10:06:29;2.40;;;2.40;;
35294;SDS011;21413;48.032;7.764;2023-04-03T10:09:00;1.87;;;1.87;;
35294;SDS011;21413;48.032;7.764;2023-04-03T10:11:27;2.20;;;2.20;;
35294;SDS011;21413;48.032;7.764;2023-04-03T10:16:22;2.20;;;2.13;;
35294;SDS011;21413;48.032;7.764;2023-04-03T10:21:35;2.20;;;2.10;;
35294;SDS011;21413;48.032;7.764;2023-04-03T10:31:59;2.50;;;2.40;;
35294;SDS011;21413;48.032;7.764;2023-04-03T10:34:31;1.70;;;1.70;;
35294;SDS011;21413;48.032;7.764;2023-04-03T10:47:30;1.90;;;1.80;;
35294;SDS011;21413;48.032;7.764;2023-04-03T10:52:43;2.27;;;2.07;;
35294;SDS011;21413;48.032;7.764;2023-04-03T10:57:39;2.10;;;2.10;;
35294;SDS011;21413;48.032;7.764;2023-04-03T11:00:16;3.23;;;2.30;;
35294;SDS011;21413;48.032;7.764;2023-04-03T11:02:57;2.60;;;2.50;;
35294;SDS011;21413;48.032;7.764;2023-04-03T11:07:57;2.30;;;2.30;;
35294;SDS011;21413;48.032;7.764;2023-04-03T11:10:30;3.57;;;2.93;;
35294;SDS011;21413;48.032;7.764;2023-04-03T11:13:00;2.23;;;2.03;;
35294;SDS011;21413;48.032;7.764;2023-04-03T11:15:29;2.07;;;1.97;;
35294;SDS011;21413;48.032;7.764;2023-04-03T11:18:00;2.50;;;2.40;;
35294;SDS011;21413;48.032;7.764;2023-04-03T11:20:31;2.00;;;1.90;;
35294;SDS011;21413;48.032;7.764;2023-04-03T11:25:32;2.40;;;2.40;;
35294;SDS011;21413;48.032;7.764;2023-04-03T11:28:01;1.93;;;1.93;;
35294;SDS011;21413;48.032;7.764;2023-04-03T11:35:44;2.30;;;2.20;;
35294;SDS011;21413;48.032;7.764;2023-04-03T11:38:14;1.60;;;1.60;;
35294;SDS011;21413;48.032;7.764;2023-04-03T11:40:43;2.20;;;2.20;;
35294;SDS011;21413;48.032;7.764;2023-04-03T11:43:26;2.20;;;2.10;;
35294;SDS011;21413;48.032;7.764;2023-04-03T11:46:03;2.33;;;1.77;;
35294;SDS011;21413;48.032;7.764;2023-04-03T11:51:01;2.70;;;1.90;;
35294;SDS011;21413;48.032;7.764;2023-04-03T11:55:54;2.20;;;2.10;;
35294;SDS011;21413;48.032;7.764;2023-04-03T12:16:06;1.80;;;1.80;;
35294;SDS011;21413;48.032;7.764;2023-04-03T12:21:08;3.43;;;2.50;;
35294;SDS011;21413;48.032;7.764;2023-04-03T12:23:36;4.03;;;2.60;;
35294;SDS011;21413;48.032;7.764;2023-04-03T12:28:44;2.00;;;2.00;;
35294;SDS011;21413;48.032;7.764;2023-04-03T12:31:14;3.00;;;2.30;;
35294;SDS011;21413;48.032;7.764;2023-04-03T12:33:52;1.93;;;1.93;;
35294;SDS011;21413;48.032;7.764;2023-04-03T12:36:36;1.90;;;1.90;;
35294;SDS011;21413;48.032;7.764;2023-04-03T12:39:11;2.30;;;2.10;;
35294;SDS011;21413;48.032;7.764;2023-04-03T12:41:46;2.00;;;2.00;;
35294;SDS011;21413;48.032;7.764;2023-04-03T12:46:57;1.90;;;1.80;;
35294;SDS011;21413;48.032;7.764;2023-04-03T12:51:57;1.70;;;1.70;;
35294;SDS011;21413;48.032;7.764;2023-04-03T12:54:29;2.63;;;2.40;;
35294;SDS011;21413;48.032;7.764;2023-04-03T12:59:40;2.77;;;2.67;;
35294;SDS011;21413;48.032;7.764;2023-04-03T13:02:43;2.40;;;2.30;;
35294;SDS011;21413;48.032;7.764;2023-04-03T13:05:08;2.73;;;2.63;;
35294;SDS011;21413;48.032;7.764;2023-04-03T13:07:35;2.00;;;2.00;;
35294;SDS011;21413;48.032;7.764;2023-04-03T13:12:30;3.10;;;3.00;;
35294;SDS011;21413;48.032;7.764;2023-04-03T13:14:58;2.90;;;2.90;;
35294;SDS011;21413;48.032;7.764;2023-04-03T13:17:25;3.50;;;3.30;;
35294;SDS011;21413;48.032;7.764;2023-04-03T13:19:52;5.87;;;5.30;;
35294;SDS011;21413;48.032;7.764;2023-04-03T13:24:49;3.63;;;3.53;;
35294;SDS011;21413;48.032;7.764;2023-04-03T13:27:16;2.47;;;2.37;;
35294;SDS011;21413;48.032;7.764;2023-04-03T13:29:42;2.00;;;2.00;;
35294;SDS011;21413;48.032;7.764;2023-04-03T13:32:19;1.70;;;1.70;;
35294;SDS011;21413;48.032;7.764;2023-04-03T13:34:46;3.10;;;2.97;;
35294;SDS011;21413;48.032;7.764;2023-04-03T13:37:26;3.07;;;2.43;;
35294;SDS011;21413;48.032;7.764;2023-04-03T13:42:37;3.07;;;2.87;;
35294;SDS011;21413;48.032;7.764;2023-04-03T13:47:38;3.00;;;2.90;;
35294;SDS011;21413;48.032;7.764;2023-04-03T13:52:43;2.63;;;2.63;;
35294;SDS011;21413;48.032;7.764;2023-04-03T14:00:19;2.47;;;2.37;;
35294;SDS011;21413;48.032;7.764;2023-04-03T14:02:46;2.10;;;2.10;;
35294;SDS011;21413;48.032;7.764;2023-04-03T14:05:13;3.67;;;3.20;;
35294;SDS011;21413;48.032;7.764;2023-04-03T14:07:41;2.53;;;2.53;;
35294;SDS011;21413;48.032;7.764;2023-04-03T14:10:07;3.07;;;3.00;;
35294;SDS011;21413;48.032;7.764;2023-04-03T14:12:34;3.20;;;3.00;;
35294;SDS011;21413;48.032;7.764;2023-04-03T14:15:02;3.37;;;3.17;;
35294;SDS011;21413;48.032;7.764;2023-04-03T14:17:32;3.53;;;3.40;;
35294;SDS011;21413;48.032;7.764;2023-04-03T14:19:58;5.03;;;4.80;;
35294;SDS011;21413;48.032;7.764;2023-04-03T14:22:32;3.40;;;3.30;;
35294;SDS011;21413;48.032;7.764;2023-04-03T14:24:59;2.60;;;2.50;;
35294;SDS011;21413;48.032;7.764;2023-04-03T14:27:30;4.83;;;4.63;;
35294;SDS011;21413;48.032;7.764;2023-04-03T14:29:59;4.87;;;4.73;;
35294;SDS011;21413;48.032;7.764;2023-04-03T14:32:26;3.37;;;3.13;;
35294;SDS011;21413;48.032;7.764;2023-04-03T14:34:52;2.50;;;2.40;;
35294;SDS011;21413;48.032;7.764;2023-04-03T14:37:22;2.40;;;2.20;;
35294;SDS011;21413;48.032;7.764;2023-04-03T14:39:48;2.10;;;2.00;;
35294;SDS011;21413;48.032;7.764;2023-04-03T14:42:18;2.43;;;2.20;;
35294;SDS011;21413;48.032;7.764;2023-04-03T14:44:45;2.30;;;2.20;;
35294;SDS011;21413;48.032;7.764;2023-04-03T14:47:14;2.00;;;1.87;;
35294;SDS011;21413;48.032;7.764;2023-04-03T14:49:41;2.20;;;2.10;;
35294;SDS011;21413;48.032;7.764;2023-04-03T14:52:15;2.40;;;2.40;;
35294;SDS011;21413;48.032;7.764;2023-04-03T14:54:43;2.70;;;2.50;;
35294;SDS011;21413;48.032;7.764;2023-04-03T14:57:12;3.00;;;2.90;;
35294;SDS011;21413;48.032;7.764;2023-04-03T14:59:39;3.10;;;3.00;;
35294;SDS011;21413;48.032;7.764;2023-04-03T15:04:45;2.30;;;2.20;;
35294;SDS011;21413;48.032;7.764;2023-04-03T15:07:13;2.40;;;2.30;;
35294;SDS011;21413;48.032;7.764;2023-04-03T15:09:42;2.30;;;2.30;;
35294;SDS011;21413;48.032;7.764;2023-04-03T15:12:10;3.47;;;2.30;;
35294;SDS011;21413;48.032;7.764;2023-04-03T15:14:36;3.03;;;2.73;;
35294;SDS011;21413;48.032;7.764;2023-04-03T15:17:02;5.00;;;4.43;;
35294;SDS011;21413;48.032;7.764;2023-04-03T15:19:28;3.30;;;3.10;;
35294;SDS011;21413;48.032;7.764;2023-04-03T15:21:55;3.10;;;2.90;;
35294;SDS011;21413;48.032;7.764;2023-04-03T15:24:21;2.90;;;2.90;;
35294;SDS011;21413;48.032;7.764;2023-04-03T15:26:47;7.10;;;3.53;;
35294;SDS011;21413;48.032;7.764;2023-04-03T15:29:13;4.67;;;4.47;;
35294;SDS011;21413;48.032;7.764;2023-04-03T15:31:39;5.17;;;4.90;;
35294;SDS011;21413;48.032;7.764;2023-04-03T15:34:05;12.60;;;8.47;;
35294;SDS011;21413;48.032;7.764;2023-04-03T15:36:33;7.10;;;6.40;;
35294;SDS011;21413;48.032;7.764;2023-04-03T15:38:59;10.90;;;7.70;;
35294;SDS011;21413;48.032;7.764;2023-04-03T15:41:25;4.03;;;3.73;;
35294;SDS011;21413;48.032;7.764;2023-04-03T15:43:51;2.90;;;2.70;;
35294;SDS011;21413;48.032;7.764;2023-04-03T15:46:17;8.53;;;3.00;;
35294;SDS011;21413;48.032;7.764;2023-04-03T15:48:43;3.03;;;2.80;;
35294;SDS011;21413;48.032;7.764;2023-04-03T15:51:09;2.40;;;2.40;;
35294;SDS011;21413;48.032;7.764;2023-04-03T15:53:35;2.60;;;2.50;;
35294;SDS011;21413;48.032;7.764;2023-04-03T15:56:01;5.47;;;5.03;;
35294;SDS011;21413;48.032;7.764;2023-04-03T15:58:29;9.53;;;3.17;;
35294;SDS011;21413;48.032;7.764;2023-04-03T16:00:57;4.70;;;4.20;;
35294;SDS011;21413;48.032;7.764;2023-04-03T16:03:23;2.40;;;2.30;;
35294;SDS011;21413;48.032;7.764;2023-04-03T16:05:52;8.63;;;7.30;;
35294;SDS011;21413;48.032;7.764;2023-04-03T16:08:18;19.23;;;11.10;;
35294;SDS011;21413;48.032;7.764;2023-04-03T16:10:44;17.73;;;11.60;;
35294;SDS011;21413;48.032;7.764;2023-04-03T16:13:11;4.93;;;4.57;;
35294;SDS011;21413;48.032;7.764;2023-04-03T16:15:38;4.03;;;3.83;;
35294;SDS011;21413;48.032;7.764;2023-04-03T16:18:04;3.77;;;3.47;;
35294;SDS011;21413;48.032;7.764;2023-04-03T16:20:30;4.83;;;3.17;;
35294;SDS011;21413;48.032;7.764;2023-04-03T16:22:57;2.50;;;2.43;;
35294;SDS011;21413;48.032;7.764;2023-04-03T16:25:25;4.40;;;4.00;;
35294;SDS011;21413;48.032;7.764;2023-04-03T16:27:51;2.70;;;2.60;;
35294;SDS011;21413;48.032;7.764;2023-04-03T16:30:17;3.80;;;3.60;;
35294;SDS011;21413;48.032;7.764;2023-04-03T16:32:43;3.07;;;2.77;;
35294;SDS011;21413;48.032;7.764;2023-04-03T16:35:09;3.47;;;3.20;;
35294;SDS011;21413;48.032;7.764;2023-04-03T16:37:36;2.70;;;2.50;;
35294;SDS011;21413;48.032;7.764;2023-04-03T16:40:06;2.80;;;2.80;;
35294;SDS011;21413;48.032;7.764;2023-04-03T16:42:32;3.50;;;3.40;;
35294;SDS011;21413;48.032;7.764;2023-04-03T16:45:01;2.50;;;2.50;;
35294;SDS011;21413;48.032;7.764;2023-04-03T16:47:28;3.40;;;2.60;;
35294;SDS011;21413;48.032;7.764;2023-04-03T16:49:57;2.67;;;2.47;;
35294;SDS011;21413;48.032;7.764;2023-04-03T16:52:23;6.40;;;5.50;;
35294;SDS011;21413;48.032;7.764;2023-04-03T16:54:49;4.27;;;3.33;;
35294;SDS011;21413;48.032;7.764;2023-04-03T16:57:20;8.60;;;5.63;;
35294;SDS011;21413;48.032;7.764;2023-04-03T16:59:49;5.83;;;4.13;;
35294;SDS011;21413;48.032;7.764;2023-04-03T17:02:15;12.37;;;6.67;;
35294;SDS011;21413;48.032;7.764;2023-04-03T17:04:41;6.30;;;4.20;;